sensor_id;sensor_type;location;lat;lon;timestamp;P1;durP1;ratioP1;P2;durP2;ratioP2
13319;SDS011;59599;47.608;12.190;2024-02-21T05:01:19;5.00;;;3.60;;
13319;SDS011;59599;47.608;12.190;2024-02-21T05:03:45;6.60;;;3.23;;
13319;SDS011;59599;47.608;12.190;2024-02-21T05:06:11;6.87;;;3.30;;
13319;SDS011;59599;47.608;12.190;2024-02-21T05:08:37;5.50;;;4.17;;
13319;SDS011;59599;47.608;12.190;2024-02-21T05:11:03;6.20;;;4.23;;
13319;SDS011;59599;47.608;12.190;2024-02-21T05:13:29;4.60;;;3.67;;
13319;SDS011;59599;47.608;12.190;2024-02-21T05:15:55;4.70;;;3.97;;
13319;SDS011;59599;47.608;12.190;2024-02-21T05:18:20;5.67;;;3.43;;
13319;SDS011;59599;47.608;12.190;2024-02-21T05:20:46;5.47;;;4.10;;
13319;SDS011;59599;47.608;12.190;2024-02-21T05:23:11;4.40;;;3.60;;
13319;SDS011;59599;47.608;12.190;2024-02-21T05:25:37;3.83;;;3.40;;
13319;SDS011;59599;47.608;12.190;2024-02-21T05:28:03;4.47;;;3.50;;
13319;SDS011;59599;47.608;12.190;2024-02-21T05:30:31;4.30;;;3.60;;
13319;SDS011;59599;47.608;12.190;2024-02-21T05:32:56;6.47;;;3.13;;
13319;SDS011;59599;47.608;12.190;2024-02-21T05:35:28;6.60;;;3.80;;
13319;SDS011;59599;47.608;12.190;2024-02-21T05:37:54;4.70;;;3.67;;
13319;SDS011;59599;47.608;12.190;2024-02-21T05:40:20;4.17;;;3.70;;
13319;SDS011;59599;47.608;12.190;2024-02-21T05:42:46;4.37;;;3.87;;
13319;SDS011;59599;47.608;12.190;2024-02-21T05:45:12;4.03;;;3.43;;
13319;SDS011;59599;47.608;12.190;2024-02-21T05:47:38;5.53;;;3.63;;
13319;SDS011;59599;47.608;12.190;2024-02-21T05:50:04;4.37;;;3.60;;
13319;SDS011;59599;47.608;12.190;2024-02-21T05:52:30;7.33;;;3.53;;
13319;SDS011;59599;47.608;12.190;2024-02-21T05:54:56;4.53;;;3.30;;
13319;SDS011;59599;47.608;12.190;2024-02-21T05:57:22;4.53;;;3.57;;
13319;SDS011;59599;47.608;12.190;2024-02-21T05:59:48;5.00;;;3.40;;
13319;SDS011;59599;47.608;12.190;2024-02-21T06:02:14;6.33;;;3.30;;
13319;SDS011;59599;47.608;12.190;2024-02-21T06:04:40;7.43;;;3.97;;
13319;SDS011;59599;47.608;12.190;2024-02-21T06:07:07;5.40;;;3.60;;
13319;SDS011;59599;47.608;12.190;2024-02-21T06:09:33;9.13;;;3.63;;
13319;SDS011;59599;47.608;12.190;2024-02-21T06:11:59;4.90;;;3.00;;
13319;SDS011;59599;47.608;12.190;2024-02-21T06:14:24;6.33;;;3.30;;
13319;SDS011;59599;47.608;12.190;2024-02-21T06:16:50;3.07;;;2.53;;
13319;SDS011;59599;47.608;12.190;2024-02-21T06:19:16;3.13;;;2.40;;
13319;SDS011;59599;47.608;12.190;2024-02-21T06:21:42;2.50;;;2.30;;
13319;SDS011;59599;47.608;12.190;2024-02-21T06:24:08;3.70;;;2.80;;
13319;SDS011;59599;47.608;12.190;2024-02-21T06:26:34;6.90;;;3.00;;
13319;SDS011;59599;47.608;12.190;2024-02-21T06:29:00;4.03;;;2.70;;
13319;SDS011;59599;47.608;12.190;2024-02-21T06:31:27;3.37;;;2.70;;
13319;SDS011;59599;47.608;12.190;2024-02-21T06:33:53;4.27;;;2.93;;
13319;SDS011;59599;47.608;12.190;2024-02-21T06:36:19;3.40;;;2.97;;
13319;SDS011;59599;47.608;12.190;2024-02-21T06:38:45;5.03;;;2.90;;
13319;SDS011;59599;47.608;12.190;2024-02-21T06:41:14;3.90;;;3.23;;
13319;SDS011;59599;47.608;12.190;2024-02-21T06:43:44;5.17;;;2.83;;
13319;SDS011;59599;47.608;12.190;2024-02-21T06:46:11;9.40;;;3.00;;
13319;SDS011;59599;47.608;12.190;2024-02-21T06:48:37;4.67;;;2.90;;
13319;SDS011;59599;47.608;12.190;2024-02-21T06:51:03;4.40;;;3.07;;
13319;SDS011;59599;47.608;12.190;2024-02-21T06:53:29;6.83;;;3.10;;
13319;SDS011;59599;47.608;12.190;2024-02-21T06:55:55;2.97;;;2.50;;
13319;SDS011;59599;47.608;12.190;2024-02-21T06:58:21;3.73;;;2.37;;
13319;SDS011;59599;47.608;12.190;2024-02-21T07:00:47;4.47;;;2.93;;
13319;SDS011;59599;47.608;12.190;2024-02-21T07:03:13;5.57;;;2.93;;
13319;SDS011;59599;47.608;12.190;2024-02-21T07:05:39;5.97;;;2.57;;
13319;SDS011;59599;47.608;12.190;2024-02-21T07:08:04;4.50;;;2.87;;
13319;SDS011;59599;47.608;12.190;2024-02-21T07:10:30;5.27;;;3.17;;
13319;SDS011;59599;47.608;12.190;2024-02-21T07:12:56;5.40;;;3.00;;
13319;SDS011;59599;47.608;12.190;2024-02-21T07:15:21;3.30;;;2.70;;
13319;SDS011;59599;47.608;12.190;2024-02-21T07:17:47;4.97;;;2.83;;
13319;SDS011;59599;47.608;12.190;2024-02-21T07:20:13;3.83;;;2.90;;
13319;SDS011;59599;47.608;12.190;2024-02-21T07:22:39;6.17;;;2.90;;
13319;SDS011;59599;47.608;12.190;2024-02-21T07:25:05;5.90;;;2.97;;
13319;SDS011;59599;47.608;12.190;2024-02-21T07:27:32;4.97;;;3.10;;
13319;SDS011;59599;47.608;12.190;2024-02-21T07:29:58;4.77;;;3.00;;
13319;SDS011;59599;47.608;12.190;2024-02-21T07:32:24;5.10;;;2.97;;
13319;SDS011;59599;47.608;12.190;2024-02-21T07:34:50;3.57;;;2.90;;
13319;SDS011;59599;47.608;12.190;2024-02-21T07:37:16;5.40;;;3.43;;
13319;SDS011;59599;47.608;12.190;2024-02-21T07:39:42;3.87;;;3.07;;
13319;SDS011;59599;47.608;12.190;2024-02-21T07:42:08;5.90;;;3.50;;
13319;SDS011;59599;47.608;12.190;2024-02-21T07:44:34;6.13;;;3.27;;
13319;SDS011;59599;47.608;12.190;2024-02-21T07:47:00;4.80;;;2.80;;
13319;SDS011;59599;47.608;12.190;2024-02-21T07:49:26;6.00;;;3.20;;
13319;SDS011;59599;47.608;12.190;2024-02-21T07:51:52;6.80;;;3.20;;
13319;SDS011;59599;47.608;12.190;2024-02-21T07:54:18;6.10;;;3.33;;
13319;SDS011;59599;47.608;12.190;2024-02-21T07:56:44;4.67;;;3.00;;
13319;SDS011;59599;47.608;12.190;2024-02-21T07:59:10;7.23;;;2.93;;
13319;SDS011;59599;47.608;12.190;2024-02-21T08:01:38;3.70;;;2.80;;
13319;SDS011;59599;47.608;12.190;2024-02-21T08:04:03;6.07;;;3.93;;
13319;SDS011;59599;47.608;12.190;2024-02-21T08:06:29;11.80;;;7.57;;
13319;SDS011;59599;47.608;12.190;2024-02-21T08:08:55;5.17;;;2.80;;
13319;SDS011;59599;47.608;12.190;2024-02-21T08:11:22;4.90;;;3.20;;
13319;SDS011;59599;47.608;12.190;2024-02-21T08:13:47;6.13;;;2.80;;
13319;SDS011;59599;47.608;12.190;2024-02-21T08:16:13;7.80;;;2.53;;
13319;SDS011;59599;47.608;12.190;2024-02-21T08:18:39;5.03;;;2.20;;
13319;SDS011;59599;47.608;12.190;2024-02-21T08:21:05;5.10;;;2.70;;
13319;SDS011;59599;47.608;12.190;2024-02-21T08:23:31;6.40;;;3.07;;
13319;SDS011;59599;47.608;12.190;2024-02-21T08:25:57;3.50;;;2.57;;
13319;SDS011;59599;47.608;12.190;2024-02-21T08:28:23;5.77;;;2.70;;
13319;SDS011;59599;47.608;12.190;2024-02-21T08:30:50;4.47;;;3.27;;
13319;SDS011;59599;47.608;12.190;2024-02-21T08:33:15;6.47;;;3.67;;
13319;SDS011;59599;47.608;12.190;2024-02-21T08:35:44;2.43;;;1.90;;
13319;SDS011;59599;47.608;12.190;2024-02-21T08:38:10;3.40;;;2.30;;
13319;SDS011;59599;47.608;12.190;2024-02-21T08:40:35;4.80;;;2.30;;
13319;SDS011;59599;47.608;12.190;2024-02-21T08:43:01;2.57;;;2.07;;
13319;SDS011;59599;47.608;12.190;2024-02-21T08:45:28;3.17;;;1.93;;
13319;SDS011;59599;47.608;12.190;2024-02-21T08:47:54;6.23;;;1.77;;
13319;SDS011;59599;47.608;12.190;2024-02-21T08:50:19;5.87;;;2.00;;
13319;SDS011;59599;47.608;12.190;2024-02-21T08:52:45;7.80;;;2.50;;
13319;SDS011;59599;47.608;12.190;2024-02-21T08:55:11;2.30;;;2.10;;
13319;SDS011;59599;47.608;12.190;2024-02-21T08:57:37;3.27;;;2.00;;
13319;SDS011;59599;47.608;12.190;2024-02-21T09:00:04;2.77;;;1.77;;
13319;SDS011;59599;47.608;12.190;2024-02-21T09:02:41;2.40;;;1.70;;
13319;SDS011;59599;47.608;12.190;2024-02-21T09:05:10;4.20;;;1.97;;
13319;SDS011;59599;47.608;12.190;2024-02-21T09:07:36;2.67;;;2.03;;
13319;SDS011;59599;47.608;12.190;2024-02-21T09:10:02;2.33;;;1.73;;
13319;SDS011;59599;47.608;12.190;2024-02-21T09:12:28;2.40;;;1.77;;
13319;SDS011;59599;47.608;12.190;2024-02-21T09:14:54;3.17;;;1.60;;
13319;SDS011;59599;47.608;12.190;2024-02-21T09:17:20;5.87;;;2.07;;
13319;SDS011;59599;47.608;12.190;2024-02-21T09:19:46;3.27;;;1.70;;
13319;SDS011;59599;47.608;12.190;2024-02-21T09:22:13;8.30;;;2.00;;
13319;SDS011;59599;47.608;12.190;2024-02-21T09:24:38;4.00;;;1.87;;
13319;SDS011;59599;47.608;12.190;2024-02-21T09:27:04;2.53;;;1.53;;
13319;SDS011;59599;47.608;12.190;2024-02-21T09:29:31;1.93;;;1.40;;
13319;SDS011;59599;47.608;12.190;2024-02-21T09:31:58;2.23;;;1.40;;
13319;SDS011;59599;47.608;12.190;2024-02-21T09:34:23;1.70;;;1.30;;
13319;SDS011;59599;47.608;12.190;2024-02-21T09:36:49;3.83;;;1.40;;
13319;SDS011;59599;47.608;12.190;2024-02-21T09:39:15;3.70;;;1.67;;
13319;SDS011;59599;47.608;12.190;2024-02-21T09:41:45;2.03;;;1.27;;
13319;SDS011;59599;47.608;12.190;2024-02-21T09:44:17;1.50;;;1.03;;
13319;SDS011;59599;47.608;12.190;2024-02-21T09:46:52;1.77;;;1.30;;
13319;SDS011;59599;47.608;12.190;2024-02-21T09:51:53;2.77;;;1.33;;
13319;SDS011;59599;47.608;12.190;2024-02-21T09:54:19;1.90;;;1.10;;
13319;SDS011;59599;47.608;12.190;2024-02-21T09:56:46;2.90;;;1.33;;
13319;SDS011;59599;47.608;12.190;2024-02-21T09:59:12;2.50;;;1.47;;
13319;SDS011;59599;47.608;12.190;2024-02-21T10:01:38;2.80;;;2.03;;
13319;SDS011;59599;47.608;12.190;2024-02-21T10:04:04;2.13;;;1.40;;
13319;SDS011;59599;47.608;12.190;2024-02-21T10:06:30;2.47;;;1.30;;
13319;SDS011;59599;47.608;12.190;2024-02-21T10:08:56;1.43;;;0.90;;
13319;SDS011;59599;47.608;12.190;2024-02-21T10:11:22;1.38;;;1.20;;
13319;SDS011;59599;47.608;12.190;2024-02-21T10:13:49;3.00;;;1.57;;
13319;SDS011;59599;47.608;12.190;2024-02-21T10:16:15;1.67;;;1.20;;
13319;SDS011;59599;47.608;12.190;2024-02-21T10:18:41;1.17;;;1.07;;
13319;SDS011;59599;47.608;12.190;2024-02-21T10:21:07;2.40;;;1.30;;
13319;SDS011;59599;47.608;12.190;2024-02-21T10:23:43;4.03;;;1.20;;
13319;SDS011;59599;47.608;12.190;2024-02-21T10:26:09;1.93;;;1.33;;
13319;SDS011;59599;47.608;12.190;2024-02-21T10:28:36;1.73;;;1.20;;
13319;SDS011;59599;47.608;12.190;2024-02-21T10:31:06;2.57;;;1.40;;
13319;SDS011;59599;47.608;12.190;2024-02-21T10:33:36;1.47;;;1.00;;
13319;SDS011;59599;47.608;12.190;2024-02-21T10:36:09;2.47;;;1.10;;
13319;SDS011;59599;47.608;12.190;2024-02-21T10:38:38;2.67;;;2.00;;
13319;SDS011;59599;47.608;12.190;2024-02-21T10:41:05;1.90;;;1.37;;
13319;SDS011;59599;47.608;12.190;2024-02-21T10:43:38;2.27;;;0.97;;
13319;SDS011;59599;47.608;12.190;2024-02-21T10:46:06;2.83;;;1.30;;
13319;SDS011;59599;47.608;12.190;2024-02-21T10:48:38;1.50;;;1.00;;
13319;SDS011;59599;47.608;12.190;2024-02-21T10:51:13;5.40;;;1.40;;
13319;SDS011;59599;47.608;12.190;2024-02-21T10:56:28;2.53;;;1.50;;
13319;SDS011;59599;47.608;12.190;2024-02-21T10:58:56;6.80;;;2.00;;
13319;SDS011;59599;47.608;12.190;2024-02-21T11:01:23;2.03;;;1.50;;
13319;SDS011;59599;47.608;12.190;2024-02-21T11:03:49;1.63;;;1.20;;
13319;SDS011;59599;47.608;12.190;2024-02-21T11:06:16;3.03;;;1.63;;
13319;SDS011;59599;47.608;12.190;2024-02-21T11:08:43;2.37;;;1.70;;
13319;SDS011;59599;47.608;12.190;2024-02-21T11:11:11;1.87;;;1.50;;
13319;SDS011;59599;47.608;12.190;2024-02-21T11:13:42;3.00;;;1.63;;
13319;SDS011;59599;47.608;12.190;2024-02-21T11:16:08;4.70;;;1.63;;
13319;SDS011;59599;47.608;12.190;2024-02-21T11:18:36;1.67;;;1.57;;
13319;SDS011;59599;47.608;12.190;2024-02-21T11:21:02;2.57;;;1.70;;
13319;SDS011;59599;47.608;12.190;2024-02-21T11:23:29;2.57;;;1.57;;
13319;SDS011;59599;47.608;12.190;2024-02-21T11:26:05;4.20;;;2.00;;
13319;SDS011;59599;47.608;12.190;2024-02-21T11:28:31;1.50;;;1.37;;
13319;SDS011;59599;47.608;12.190;2024-02-21T11:31:10;2.40;;;1.37;;
13319;SDS011;59599;47.608;12.190;2024-02-21T11:33:40;3.17;;;1.40;;
13319;SDS011;59599;47.608;12.190;2024-02-21T11:36:08;3.43;;;1.20;;
13319;SDS011;59599;47.608;12.190;2024-02-21T11:38:47;0.97;;;0.80;;
13319;SDS011;59599;47.608;12.190;2024-02-21T11:41:13;1.97;;;1.10;;
13319;SDS011;59599;47.608;12.190;2024-02-21T11:43:39;2.03;;;1.00;;
13319;SDS011;59599;47.608;12.190;2024-02-21T11:46:06;5.17;;;1.10;;
13319;SDS011;59599;47.608;12.190;2024-02-21T11:48:32;1.63;;;1.00;;
13319;SDS011;59599;47.608;12.190;2024-02-21T11:50:57;1.33;;;1.20;;
13319;SDS011;59599;47.608;12.190;2024-02-21T11:53:23;2.40;;;1.20;;
13319;SDS011;59599;47.608;12.190;2024-02-21T11:55:49;2.07;;;1.30;;
13319;SDS011;59599;47.608;12.190;2024-02-21T11:58:15;1.27;;;0.97;;
13319;SDS011;59599;47.608;12.190;2024-02-21T12:00:41;5.53;;;1.20;;
13319;SDS011;59599;47.608;12.190;2024-02-21T12:03:07;2.10;;;1.10;;
13319;SDS011;59599;47.608;12.190;2024-02-21T12:05:33;4.10;;;1.20;;
13319;SDS011;59599;47.608;12.190;2024-02-21T12:07:59;3.53;;;1.53;;
13319;SDS011;59599;47.608;12.190;2024-02-21T12:10:25;3.30;;;1.40;;
13319;SDS011;59599;47.608;12.190;2024-02-21T12:12:52;1.50;;;1.10;;
13319;SDS011;59599;47.608;12.190;2024-02-21T12:15:23;0.93;;;0.73;;
13319;SDS011;59599;47.608;12.190;2024-02-21T12:17:49;3.13;;;1.10;;
13319;SDS011;59599;47.608;12.190;2024-02-21T12:20:16;2.47;;;1.25;;
13319;SDS011;59599;47.608;12.190;2024-02-21T12:22:42;2.77;;;1.10;;
13319;SDS011;59599;47.608;12.190;2024-02-21T12:25:17;3.43;;;1.20;;
13319;SDS011;59599;47.608;12.190;2024-02-21T12:27:44;6.23;;;1.10;;
13319;SDS011;59599;47.608;12.190;2024-02-21T12:30:10;1.20;;;0.90;;
13319;SDS011;59599;47.608;12.190;2024-02-21T12:32:37;1.10;;;0.90;;
13319;SDS011;59599;47.608;12.190;2024-02-21T12:35:03;3.13;;;0.90;;
13319;SDS011;59599;47.608;12.190;2024-02-21T12:37:29;1.53;;;1.30;;
13319;SDS011;59599;47.608;12.190;2024-02-21T12:39:54;1.03;;;0.80;;
13319;SDS011;59599;47.608;12.190;2024-02-21T12:42:20;1.57;;;1.20;;
13319;SDS011;59599;47.608;12.190;2024-02-21T12:44:48;1.43;;;0.97;;
13319;SDS011;59599;47.608;12.190;2024-02-21T12:47:14;1.63;;;1.53;;
13319;SDS011;59599;47.608;12.190;2024-02-21T12:49:40;2.63;;;1.13;;
13319;SDS011;59599;47.608;12.190;2024-02-21T12:52:06;0.80;;;0.70;;
13319;SDS011;59599;47.608;12.190;2024-02-21T12:54:32;2.50;;;0.90;;
13319;SDS011;59599;47.608;12.190;2024-02-21T12:56:59;2.87;;;1.47;;
13319;SDS011;59599;47.608;12.190;2024-02-21T12:59:27;3.07;;;0.80;;
13319;SDS011;59599;47.608;12.190;2024-02-21T13:01:53;1.10;;;1.00;;
13319;SDS011;59599;47.608;12.190;2024-02-21T13:04:19;3.03;;;1.20;;
13319;SDS011;59599;47.608;12.190;2024-02-21T13:06:47;2.20;;;1.10;;
13319;SDS011;59599;47.608;12.190;2024-02-21T13:09:13;1.80;;;1.20;;
13319;SDS011;59599;47.608;12.190;2024-02-21T13:11:39;4.40;;;2.80;;
13319;SDS011;59599;47.608;12.190;2024-02-21T13:14:06;1.30;;;1.00;;
13319;SDS011;59599;47.608;12.190;2024-02-21T13:16:32;1.80;;;1.00;;
13319;SDS011;59599;47.608;12.190;2024-02-21T13:19:04;1.80;;;1.03;;
13319;SDS011;59599;47.608;12.190;2024-02-21T13:21:35;1.07;;;0.80;;
13319;SDS011;59599;47.608;12.190;2024-02-21T13:24:01;0.90;;;0.80;;
13319;SDS011;59599;47.608;12.190;2024-02-21T13:26:27;2.27;;;1.30;;
13319;SDS011;59599;47.608;12.190;2024-02-21T13:28:53;1.17;;;0.97;;
13319;SDS011;59599;47.608;12.190;2024-02-21T13:31:19;3.47;;;1.10;;
13319;SDS011;59599;47.608;12.190;2024-02-21T13:33:45;2.17;;;1.20;;
13319;SDS011;59599;47.608;12.190;2024-02-21T13:36:11;1.97;;;0.80;;
13319;SDS011;59599;47.608;12.190;2024-02-21T13:38:37;3.30;;;0.90;;
13319;SDS011;59599;47.608;12.190;2024-02-21T13:41:04;5.90;;;1.40;;
13319;SDS011;59599;47.608;12.190;2024-02-21T13:43:30;1.33;;;0.90;;
13319;SDS011;59599;47.608;12.190;2024-02-21T13:45:59;1.00;;;0.90;;
13319;SDS011;59599;47.608;12.190;2024-02-21T13:48:27;4.20;;;1.03;;
13319;SDS011;59599;47.608;12.190;2024-02-21T13:50:54;3.07;;;1.20;;
13319;SDS011;59599;47.608;12.190;2024-02-21T13:53:19;1.77;;;1.03;;
13319;SDS011;59599;47.608;12.190;2024-02-21T13:55:46;3.43;;;1.30;;
13319;SDS011;59599;47.608;12.190;2024-02-21T13:58:12;6.33;;;1.80;;
13319;SDS011;59599;47.608;12.190;2024-02-21T14:00:37;2.37;;;1.20;;
13319;SDS011;59599;47.608;12.190;2024-02-21T14:03:03;1.50;;;1.10;;
13319;SDS011;59599;47.608;12.190;2024-02-21T14:05:29;1.50;;;1.20;;
13319;SDS011;59599;47.608;12.190;2024-02-21T14:07:55;4.10;;;1.20;;
13319;SDS011;59599;47.608;12.190;2024-02-21T14:10:21;1.90;;;1.13;;
13319;SDS011;59599;47.608;12.190;2024-02-21T14:12:47;1.23;;;0.83;;
13319;SDS011;59599;47.608;12.190;2024-02-21T14:15:14;1.47;;;1.10;;
13319;SDS011;59599;47.608;12.190;2024-02-21T14:17:41;1.60;;;1.17;;
13319;SDS011;59599;47.608;12.190;2024-02-21T14:20:07;1.60;;;1.03;;
13319;SDS011;59599;47.608;12.190;2024-02-21T14:22:33;1.80;;;1.00;;
13319;SDS011;59599;47.608;12.190;2024-02-21T14:25:00;2.40;;;1.17;;
13319;SDS011;59599;47.608;12.190;2024-02-21T14:27:26;2.95;;;1.20;;
13319;SDS011;59599;47.608;12.190;2024-02-21T14:29:53;5.82;;;1.02;;
13319;SDS011;59599;47.608;12.190;2024-02-21T14:32:18;3.30;;;1.20;;
13319;SDS011;59599;47.608;12.190;2024-02-21T14:34:45;1.20;;;1.08;;
13319;SDS011;59599;47.608;12.190;2024-02-21T14:37:10;2.10;;;1.30;;
13319;SDS011;59599;47.608;12.190;2024-02-21T14:39:36;2.38;;;1.10;;
13319;SDS011;59599;47.608;12.190;2024-02-21T14:42:02;1.13;;;1.02;;
13319;SDS011;59599;47.608;12.190;2024-02-21T14:44:28;1.83;;;1.02;;
13319;SDS011;59599;47.608;12.190;2024-02-21T14:46:54;3.13;;;0.90;;
13319;SDS011;59599;47.608;12.190;2024-02-21T14:49:20;1.42;;;1.08;;
13319;SDS011;59599;47.608;12.190;2024-02-21T14:51:46;4.33;;;1.20;;
13319;SDS011;59599;47.608;12.190;2024-02-21T14:54:12;1.67;;;1.13;;
13319;SDS011;59599;47.608;12.190;2024-02-21T14:56:38;1.27;;;1.03;;
13319;SDS011;59599;47.608;12.190;2024-02-21T14:59:04;3.87;;;1.20;;
13319;SDS011;59599;47.608;12.190;2024-02-21T15:01:35;5.77;;;1.17;;
13319;SDS011;59599;47.608;12.190;2024-02-21T15:04:03;3.80;;;1.17;;
13319;SDS011;59599;47.608;12.190;2024-02-21T15:06:28;2.67;;;1.40;;
13319;SDS011;59599;47.608;12.190;2024-02-21T15:08:56;2.40;;;1.23;;
13319;SDS011;59599;47.608;12.190;2024-02-21T15:11:22;3.77;;;1.20;;
13319;SDS011;59599;47.608;12.190;2024-02-21T15:13:48;2.77;;;1.37;;
13319;SDS011;59599;47.608;12.190;2024-02-21T15:16:14;1.10;;;1.00;;
13319;SDS011;59599;47.608;12.190;2024-02-21T15:18:41;1.60;;;1.13;;
13319;SDS011;59599;47.608;12.190;2024-02-21T15:21:07;3.57;;;1.30;;
13319;SDS011;59599;47.608;12.190;2024-02-21T15:23:38;1.93;;;1.53;;
13319;SDS011;59599;47.608;12.190;2024-02-21T15:26:04;3.10;;;1.67;;
13319;SDS011;59599;47.608;12.190;2024-02-21T15:28:30;7.53;;;1.97;;
13319;SDS011;59599;47.608;12.190;2024-02-21T15:30:55;5.37;;;2.20;;
13319;SDS011;59599;47.608;12.190;2024-02-21T15:33:22;2.57;;;1.40;;
13319;SDS011;59599;47.608;12.190;2024-02-21T15:35:48;2.70;;;1.30;;
13319;SDS011;59599;47.608;12.190;2024-02-21T15:38:14;2.70;;;1.20;;
13319;SDS011;59599;47.608;12.190;2024-02-21T15:40:39;2.87;;;1.60;;
13319;SDS011;59599;47.608;12.190;2024-02-21T15:43:05;5.13;;;1.20;;
13319;SDS011;59599;47.608;12.190;2024-02-21T15:45:33;2.57;;;1.03;;
13319;SDS011;59599;47.608;12.190;2024-02-21T15:47:59;3.80;;;1.83;;
13319;SDS011;59599;47.608;12.190;2024-02-21T15:50:25;2.77;;;1.70;;
13319;SDS011;59599;47.608;12.190;2024-02-21T15:52:53;6.10;;;2.90;;
13319;SDS011;59599;47.608;12.190;2024-02-21T15:55:19;3.67;;;2.90;;
13319;SDS011;59599;47.608;12.190;2024-02-21T15:57:45;4.17;;;2.60;;
13319;SDS011;59599;47.608;12.190;2024-02-21T16:00:11;4.10;;;2.60;;
13319;SDS011;59599;47.608;12.190;2024-02-21T16:02:41;6.73;;;3.17;;
13319;SDS011;59599;47.608;12.190;2024-02-21T16:05:07;5.50;;;1.67;;
13319;SDS011;59599;47.608;12.190;2024-02-21T16:07:34;2.10;;;1.50;;
13319;SDS011;59599;47.608;12.190;2024-02-21T16:10:00;3.77;;;1.90;;
13319;SDS011;59599;47.608;12.190;2024-02-21T16:12:26;4.67;;;1.73;;
13319;SDS011;59599;47.608;12.190;2024-02-21T16:14:52;5.63;;;2.37;;
13319;SDS011;59599;47.608;12.190;2024-02-21T16:17:18;3.30;;;2.03;;
13319;SDS011;59599;47.608;12.190;2024-02-21T16:19:44;6.63;;;3.13;;
13319;SDS011;59599;47.608;12.190;2024-02-21T16:22:10;7.67;;;3.23;;
13319;SDS011;59599;47.608;12.190;2024-02-21T16:24:36;3.87;;;2.20;;
13319;SDS011;59599;47.608;12.190;2024-02-21T16:27:02;6.07;;;2.47;;
13319;SDS011;59599;47.608;12.190;2024-02-21T16:29:33;4.17;;;2.07;;
13319;SDS011;59599;47.608;12.190;2024-02-21T16:31:59;8.37;;;4.07;;
13319;SDS011;59599;47.608;12.190;2024-02-21T16:34:26;15.40;;;7.37;;
13319;SDS011;59599;47.608;12.190;2024-02-21T16:36:52;13.47;;;6.13;;
13319;SDS011;59599;47.608;12.190;2024-02-21T16:39:18;9.77;;;4.37;;
13319;SDS011;59599;47.608;12.190;2024-02-21T16:41:44;8.53;;;4.73;;
13319;SDS011;59599;47.608;12.190;2024-02-21T16:44:10;6.40;;;3.93;;
13319;SDS011;59599;47.608;12.190;2024-02-21T16:46:36;7.83;;;4.13;;
13319;SDS011;59599;47.608;12.190;2024-02-21T16:49:02;10.17;;;4.53;;
13319;SDS011;59599;47.608;12.190;2024-02-21T16:51:28;9.40;;;3.13;;
13319;SDS011;59599;47.608;12.190;2024-02-21T16:53:53;7.60;;;3.70;;
13319;SDS011;59599;47.608;12.190;2024-02-21T16:56:19;8.33;;;4.23;;
13319;SDS011;59599;47.608;12.190;2024-02-21T16:58:45;7.60;;;4.67;;
13319;SDS011;59599;47.608;12.190;2024-02-21T17:01:11;5.57;;;3.70;;
13319;SDS011;59599;47.608;12.190;2024-02-21T17:03:37;3.90;;;3.10;;
13319;SDS011;59599;47.608;12.190;2024-02-21T17:06:03;6.37;;;2.20;;
13319;SDS011;59599;47.608;12.190;2024-02-21T17:08:30;5.63;;;1.97;;
13319;SDS011;59599;47.608;12.190;2024-02-21T17:10:56;4.53;;;2.50;;
13319;SDS011;59599;47.608;12.190;2024-02-21T17:13:22;6.57;;;3.17;;
13319;SDS011;59599;47.608;12.190;2024-02-21T17:15:48;5.57;;;2.83;;
13319;SDS011;59599;47.608;12.190;2024-02-21T17:18:15;8.17;;;3.40;;
13319;SDS011;59599;47.608;12.190;2024-02-21T17:20:41;4.27;;;3.20;;
13319;SDS011;59599;47.608;12.190;2024-02-21T17:23:07;5.97;;;3.30;;
13319;SDS011;59599;47.608;12.190;2024-02-21T17:25:33;6.40;;;3.07;;
13319;SDS011;59599;47.608;12.190;2024-02-21T17:27:59;4.13;;;2.60;;
13319;SDS011;59599;47.608;12.190;2024-02-21T17:30:25;4.20;;;2.70;;
13319;SDS011;59599;47.608;12.190;2024-02-21T17:32:51;8.40;;;3.47;;
13319;SDS011;59599;47.608;12.190;2024-02-21T17:35:17;5.87;;;3.37;;
13319;SDS011;59599;47.608;12.190;2024-02-21T17:37:43;6.30;;;3.57;;
13319;SDS011;59599;47.608;12.190;2024-02-21T17:40:08;6.90;;;3.57;;
13319;SDS011;59599;47.608;12.190;2024-02-21T17:42:35;8.97;;;3.87;;
13319;SDS011;59599;47.608;12.190;2024-02-21T17:45:01;10.53;;;4.07;;
13319;SDS011;59599;47.608;12.190;2024-02-21T17:47:27;13.67;;;7.97;;
13319;SDS011;59599;47.608;12.190;2024-02-21T17:49:53;21.53;;;11.43;;
13319;SDS011;59599;47.608;12.190;2024-02-21T17:52:19;14.07;;;7.70;;
13319;SDS011;59599;47.608;12.190;2024-02-21T17:54:45;11.00;;;5.77;;
13319;SDS011;59599;47.608;12.190;2024-02-21T17:57:12;11.30;;;7.50;;
13319;SDS011;59599;47.608;12.190;2024-02-21T17:59:38;13.93;;;6.90;;
13319;SDS011;59599;47.608;12.190;2024-02-21T18:02:05;15.90;;;8.20;;
13319;SDS011;59599;47.608;12.190;2024-02-21T18:04:31;10.73;;;6.37;;
13319;SDS011;59599;47.608;12.190;2024-02-21T18:06:57;9.00;;;4.80;;
13319;SDS011;59599;47.608;12.190;2024-02-21T18:09:22;7.83;;;4.10;;
13319;SDS011;59599;47.608;12.190;2024-02-21T18:11:48;7.03;;;3.87;;
13319;SDS011;59599;47.608;12.190;2024-02-21T18:14:14;8.90;;;4.83;;
13319;SDS011;59599;47.608;12.190;2024-02-21T18:16:40;9.30;;;4.93;;
13319;SDS011;59599;47.608;12.190;2024-02-21T18:19:06;5.00;;;3.27;;
13319;SDS011;59599;47.608;12.190;2024-02-21T18:21:32;18.97;;;6.53;;
13319;SDS011;59599;47.608;12.190;2024-02-21T18:23:58;9.33;;;5.87;;
13319;SDS011;59599;47.608;12.190;2024-02-21T18:26:24;8.93;;;4.70;;
13319;SDS011;59599;47.608;12.190;2024-02-21T18:28:50;6.60;;;3.23;;
13319;SDS011;59599;47.608;12.190;2024-02-21T18:31:17;6.20;;;3.40;;
13319;SDS011;59599;47.608;12.190;2024-02-21T18:33:44;7.07;;;3.20;;
13319;SDS011;59599;47.608;12.190;2024-02-21T18:36:10;9.60;;;4.40;;
13319;SDS011;59599;47.608;12.190;2024-02-21T18:38:36;15.30;;;8.40;;
13319;SDS011;59599;47.608;12.190;2024-02-21T18:41:03;15.27;;;8.17;;
13319;SDS011;59599;47.608;12.190;2024-02-21T18:43:29;12.63;;;6.57;;
13319;SDS011;59599;47.608;12.190;2024-02-21T18:45:55;8.30;;;5.27;;
13319;SDS011;59599;47.608;12.190;2024-02-21T18:48:21;6.50;;;3.83;;
13319;SDS011;59599;47.608;12.190;2024-02-21T18:50:47;5.93;;;3.10;;
13319;SDS011;59599;47.608;12.190;2024-02-21T18:53:13;7.20;;;3.10;;
13319;SDS011;59599;47.608;12.190;2024-02-21T18:55:39;6.33;;;3.23;;
13319;SDS011;59599;47.608;12.190;2024-02-21T18:58:05;5.80;;;4.20;;
13319;SDS011;59599;47.608;12.190;2024-02-21T19:00:31;8.00;;;3.80;;
13319;SDS011;59599;47.608;12.190;2024-02-21T19:02:57;7.87;;;3.67;;
13319;SDS011;59599;47.608;12.190;2024-02-21T19:05:23;7.07;;;4.00;;
13319;SDS011;59599;47.608;12.190;2024-02-21T19:07:50;8.70;;;5.60;;
13319;SDS011;59599;47.608;12.190;2024-02-21T19:10:16;10.97;;;6.70;;
13319;SDS011;59599;47.608;12.190;2024-02-21T19:12:41;12.23;;;6.90;;
13319;SDS011;59599;47.608;12.190;2024-02-21T19:15:08;9.40;;;4.60;;
13319;SDS011;59599;47.608;12.190;2024-02-21T19:17:34;7.60;;;4.53;;
13319;SDS011;59599;47.608;12.190;2024-02-21T19:20:00;13.47;;;8.50;;
13319;SDS011;59599;47.608;12.190;2024-02-21T19:22:25;10.80;;;6.50;;
13319;SDS011;59599;47.608;12.190;2024-02-21T19:24:57;9.23;;;5.03;;
13319;SDS011;59599;47.608;12.190;2024-02-21T19:27:26;10.70;;;5.27;;
13319;SDS011;59599;47.608;12.190;2024-02-21T19:29:52;13.87;;;6.80;;
13319;SDS011;59599;47.608;12.190;2024-02-21T19:32:17;16.53;;;8.57;;
13319;SDS011;59599;47.608;12.190;2024-02-21T19:34:46;12.27;;;6.93;;